Time;durP1;ratioP1;P1;durP2;ratioP2;P2;SDS_P1;SDS_P2;PMS_P1;PMS_P2;Temp;Humidity;BMP_temperature;BMP_pressure;BME280_temperature;BME280_humidity;BME280_pressure;Samples;Min_cycle;Max_cycle;Signal;HPM_P1;HPM_P2
2023/10/19 00:02:05;;;;;;;8.20;5.13;;;11.20;99.90;;;;;;5034616;28;20197;-45
2023/10/19 00:04:37;;;;;;;6.00;4.37;;;11.30;99.90;;;;;;5016790;28;20214;-46
2023/10/19 00:07:06;;;;;;;5.80;4.10;;;11.20;99.90;;;;;;5034746;28;20164;-43
2023/10/19 00:09:37;;;;;;;9.17;5.50;;;11.30;99.90;;;;;;5034431;28;20169;-44
2023/10/19 00:12:06;;;;;;;6.00;5.00;;;11.30;99.90;;;;;;5034472;28;20231;-46
2023/10/19 00:14:32;;;;;;;8.30;4.90;;;11.30;99.90;;;;;;5034557;28;20192;-46
2023/10/19 00:17:00;;;;;;;6.73;5.07;;;11.30;99.90;;;;;;5034333;28;20211;-44
2023/10/19 00:19:30;;;;;;;7.37;4.93;;;11.30;99.90;;;;;;5034628;28;20652;-44
2023/10/19 00:22:08;;;;;;;7.37;4.37;;;11.30;99.90;;;;;;5034230;28;20367;-45
2023/10/19 00:24:41;;;;;;;5.60;4.67;;;11.30;99.90;;;;;;5034153;28;20161;-45
2023/10/19 00:27:10;;;;;;;7.63;4.80;;;11.30;99.90;;;;;;5034825;28;20215;-46
2023/10/19 00:29:40;;;;;;;6.37;4.77;;;11.40;99.90;;;;;;5034022;28;20645;-46
2023/10/19 00:32:12;;;;;;;6.13;4.20;;;11.40;99.90;;;;;;5034301;28;20192;-45
2023/10/19 00:34:38;;;;;;;6.60;5.00;;;11.40;99.90;;;;;;5034361;28;20587;-43
2023/10/19 00:37:07;;;;;;;6.30;3.97;;;11.40;99.90;;;;;;5033988;28;20197;-45
2023/10/19 00:39:42;;;;;;;5.30;3.97;;;11.40;99.90;;;;;;5034097;28;20238;-46
2023/10/19 00:42:08;;;;;;;7.07;4.80;;;11.40;99.90;;;;;;5034327;28;20262;-46
2023/10/19 00:44:42;;;;;;;9.67;4.70;;;11.50;99.90;;;;;;5034123;28;20641;-46
2023/10/19 00:47:13;;;;;;;7.63;5.20;;;11.40;99.90;;;;;;5033844;28;20165;-46
2023/10/19 00:49:38;;;;;;;8.73;4.83;;;11.40;99.90;;;;;;5033670;28;20652;-45
2023/10/19 00:52:31;;;;;;;6.90;5.40;;;11.50;99.90;;;;;;5033936;28;20176;-46
2023/10/19 00:54:58;;;;;;;6.10;4.93;;;11.50;99.90;;;;;;5033252;28;20204;-44
2023/10/19 00:57:34;;;;;;;6.77;5.10;;;11.40;99.90;;;;;;5033983;28;20300;-45
2023/10/19 01:00:21;;;;;;;6.70;5.27;;;11.40;99.90;;;;;;5033594;28;20235;-46
2023/10/19 01:02:47;;;;;;;8.37;5.67;;;11.40;99.90;;;;;;5033605;28;20168;-45
2023/10/19 01:05:13;;;;;;;8.37;4.87;;;11.40;99.90;;;;;;5033618;28;20311;-44
2023/10/19 01:07:44;;;;;;;7.77;5.10;;;11.40;99.90;;;;;;5033565;28;20268;-46
2023/10/19 01:10:19;;;;;;;6.57;4.90;;;11.40;99.90;;;;;;5032697;28;20199;-44
2023/10/19 01:12:45;;;;;;;7.57;4.00;;;11.50;99.90;;;;;;5033805;28;20184;-44
2023/10/19 01:17:56;;;;;;;6.87;4.70;;;11.50;99.90;;;;;;5033748;28;20165;-45
2023/10/19 01:20:54;;;;;;;6.67;4.80;;;11.50;99.90;;;;;;5033417;28;20192;-45
2023/10/19 01:23:21;;;;;;;5.10;4.10;;;11.50;99.90;;;;;;5033370;28;20219;-45
2023/10/19 01:28:42;;;;;;;5.40;3.97;;;11.70;99.90;;;;;;5033739;28;20188;-45
2023/10/19 01:34:06;;;;;;;3.70;2.90;;;11.80;99.90;;;;;;5033707;28;20171;-46
2023/10/19 01:36:42;;;;;;;4.40;2.53;;;12.00;99.90;;;;;;5033634;28;20165;-45
2023/10/19 01:39:11;;;;;;;3.20;2.50;;;12.10;99.90;;;;;;5033176;28;20625;-45
2023/10/19 01:41:41;;;;;;;6.17;2.40;;;12.20;99.90;;;;;;5032935;28;20205;-46
2023/10/19 01:44:07;;;;;;;3.27;1.50;;;12.20;99.90;;;;;;5033175;28;20187;-45
2023/10/19 01:46:35;;;;;;;3.37;1.40;;;12.30;99.90;;;;;;5033375;28;20184;-45
2023/10/19 01:49:10;;;;;;;3.43;1.90;;;12.40;99.90;;;;;;5033367;28;20178;-44
2023/10/19 01:51:39;;;;;;;4.20;1.30;;;12.50;99.90;;;;;;5033280;28;20282;-45
2023/10/19 01:54:08;;;;;;;1.93;1.20;;;12.60;99.90;;;;;;5034731;28;20256;-46
2023/10/19 01:56:38;;;;;;;4.17;0.80;;;12.70;99.90;;;;;;5033327;28;20181;-46
2023/10/19 01:59:04;;;;;;;1.77;1.00;;;12.80;99.90;;;;;;5033278;28;20540;-45
2023/10/19 02:01:32;;;;;;;1.53;1.00;;;12.80;99.90;;;;;;5033117;28;20201;-43
2023/10/19 02:04:00;;;;;;;0.73;0.70;;;12.90;99.90;;;;;;5033017;28;20254;-44
2023/10/19 02:06:38;;;;;;;3.67;1.00;;;13.00;99.90;;;;;;5032946;28;20165;-45
2023/10/19 02:09:21;;;;;;;2.60;0.90;;;13.10;99.90;;;;;;5017108;28;20617;-46
2023/10/19 02:11:48;;;;;;;2.13;0.93;;;13.10;99.90;;;;;;5016536;28;20672;-44
2023/10/19 02:14:18;;;;;;;3.17;1.60;;;13.20;99.90;;;;;;5032694;28;20189;-45
2023/10/19 02:16:52;;;;;;;3.57;2.07;;;13.20;99.90;;;;;;5033127;28;20212;-45
2023/10/19 02:19:20;;;;;;;3.83;2.20;;;13.20;99.90;;;;;;5032922;28;20195;-45
2023/10/19 02:21:53;;;;;;;8.80;2.20;;;13.20;99.90;;;;;;5033919;28;20208;-46
2023/10/19 02:24:20;;;;;;;7.10;2.50;;;13.10;99.90;;;;;;5036873;28;20619;-46
2023/10/19 02:26:51;;;;;;;2.10;1.90;;;13.10;99.90;;;;;;5019289;28;20547;-46
2023/10/19 02:29:18;;;;;;;2.90;1.00;;;13.10;99.90;;;;;;5036663;28;20216;-44
2023/10/19 02:31:44;;;;;;;3.47;0.80;;;13.20;99.90;;;;;;5036176;28;20225;-45
2023/10/19 02:34:11;;;;;;;1.53;0.73;;;13.20;99.90;;;;;;5036278;28;20176;-43
2023/10/19 02:36:39;;;;;;;4.93;0.80;;;13.40;99.90;;;;;;5036194;28;20181;-44
2023/10/19 02:39:10;;;;;;;4.67;0.80;;;13.50;99.90;;;;;;5036438;28;20177;-45
2023/10/19 02:41:37;;;;;;;1.97;0.53;;;13.50;99.90;;;;;;5036311;28;20209;-44
2023/10/19 02:44:23;;;;;;;5.37;0.93;;;13.60;99.90;;;;;;5036122;28;20176;-46
2023/10/19 02:46:52;;;;;;;1.93;0.70;;;13.70;99.90;;;;;;5036562;28;20197;-45
2023/10/19 02:49:18;;;;;;;3.73;0.87;;;13.70;99.90;;;;;;5017537;28;20645;-45
2023/10/19 02:51:45;;;;;;;3.13;0.80;;;13.70;99.90;;;;;;5036079;28;20270;-45
2023/10/19 02:54:21;;;;;;;3.60;0.90;;;13.70;99.90;;;;;;5036207;28;20177;-46
2023/10/19 02:56:58;;;;;;;2.53;0.60;;;13.70;99.90;;;;;;5034130;28;20188;-47
2023/10/19 02:59:25;;;;;;;4.20;1.00;;;13.70;99.90;;;;;;5004098;28;20231;-44
2023/10/19 03:02:00;;;;;;;4.27;0.83;;;13.70;99.90;;;;;;5035596;28;20197;-46
2023/10/19 03:04:54;;;;;;;4.97;1.10;;;13.60;99.90;;;;;;5036039;28;20530;-44
2023/10/19 03:07:19;;;;;;;2.50;0.70;;;13.60;99.90;;;;;;5035951;28;20199;-44
2023/10/19 03:09:54;;;;;;;4.97;0.90;;;13.60;99.90;;;;;;5035771;28;20173;-46
2023/10/19 03:12:26;;;;;;;5.50;0.80;;;13.60;99.90;;;;;;5035747;28;20157;-46
2023/10/19 03:14:57;;;;;;;4.53;0.70;;;13.60;99.90;;;;;;5019111;28;20173;-45
2023/10/19 03:17:25;;;;;;;6.13;1.00;;;13.60;99.90;;;;;;5035495;28;20179;-44
2023/10/19 03:19:52;;;;;;;5.80;0.90;;;13.60;99.90;;;;;;5035620;28;20205;-45
2023/10/19 03:22:19;;;;;;;2.23;0.70;;;13.50;99.90;;;;;;5017383;28;20205;-43
2023/10/19 03:24:45;;;;;;;3.50;0.70;;;13.50;99.90;;;;;;5035370;28;20259;-46
2023/10/19 03:27:21;;;;;;;3.33;0.80;;;13.50;99.90;;;;;;5017836;28;20215;-45
2023/10/19 03:29:53;;;;;;;4.40;0.70;;;13.50;99.90;;;;;;5035162;28;20161;-45
2023/10/19 03:32:26;;;;;;;1.90;0.80;;;13.50;99.90;;;;;;5018273;28;20188;-44
2023/10/19 03:34:56;;;;;;;9.60;0.77;;;13.50;99.90;;;;;;5029503;28;20200;-45
2023/10/19 03:37:30;;;;;;;2.33;0.70;;;13.50;99.90;;;;;;5019413;28;20196;-45
2023/10/19 03:39:57;;;;;;;1.50;0.70;;;13.50;99.90;;;;;;5017779;28;20688;-45
2023/10/19 03:42:32;;;;;;;3.93;1.07;;;13.40;99.90;;;;;;5034493;28;20677;-45
2023/10/19 03:44:59;;;;;;;4.07;0.90;;;13.40;99.90;;;;;;5013258;28;20189;-46
2023/10/19 03:47:27;;;;;;;3.03;0.97;;;13.40;99.90;;;;;;5035185;28;20671;-44
2023/10/19 03:49:53;;;;;;;4.43;1.10;;;13.40;99.90;;;;;;5017716;28;20570;-45
2023/10/19 03:54:44;;;;;;;2.23;0.83;;;13.30;99.90;;;;;;5035126;28;20234;-43
2023/10/19 03:57:19;;;;;;;4.73;1.17;;;13.30;99.90;;;;;;5017443;28;20168;-47
2023/10/19 03:59:50;;;;;;;2.77;0.97;;;13.30;99.90;;;;;;5018195;28;20203;-45
2023/10/19 04:02:16;;;;;;;4.40;1.10;;;13.30;99.90;;;;;;5034889;28;20251;-45
2023/10/19 04:04:46;;;;;;;1.57;0.90;;;13.20;99.90;;;;;;5034897;28;20181;-45
2023/10/19 04:07:20;;;;;;;4.70;0.90;;;13.20;99.90;;;;;;5017686;28;20263;-45
2023/10/19 04:12:31;;;;;;;3.90;1.00;;;13.10;99.90;;;;;;5034461;28;20184;-46
2023/10/19 04:15:16;;;;;;;2.50;1.13;;;13.10;99.90;;;;;;5017341;28;20668;-45
2023/10/19 04:17:46;;;;;;;1.67;0.97;;;13.20;99.90;;;;;;5034632;28;20173;-47
2023/10/19 04:20:28;;;;;;;3.07;1.50;;;13.10;99.90;;;;;;5017043;28;20204;-45
2023/10/19 04:22:54;;;;;;;3.33;1.27;;;13.20;99.90;;;;;;5034201;28;20691;-45
2023/10/19 04:25:25;;;;;;;7.73;1.47;;;13.20;99.90;;;;;;5034452;28;20224;-44
2023/10/19 04:27:56;;;;;;;3.90;1.57;;;13.20;99.90;;;;;;5017580;28;20181;-45
2023/10/19 04:30:24;;;;;;;3.53;1.30;;;13.20;99.90;;;;;;5034116;28;20275;-45
2023/10/19 04:32:57;;;;;;;7.13;1.90;;;13.20;99.90;;;;;;5017714;28;20240;-43
2023/10/19 04:35:29;;;;;;;6.63;2.80;;;13.20;99.90;;;;;;5034548;28;20162;-45
2023/10/19 04:37:56;;;;;;;10.30;3.20;;;13.20;99.90;;;;;;5034098;28;20161;-44
2023/10/19 04:40:23;;;;;;;4.60;3.10;;;13.10;99.90;;;;;;5033780;28;20197;-44
2023/10/19 04:42:52;;;;;;;8.07;3.33;;;13.10;99.90;;;;;;5016591;28;20213;-46
2023/10/19 04:45:18;;;;;;;9.43;3.73;;;13.10;99.90;;;;;;5033930;28;20228;-45
2023/10/19 04:47:43;;;;;;;5.57;3.80;;;13.10;99.90;;;;;;5015707;28;20227;-45
2023/10/19 04:50:10;;;;;;;6.10;4.00;;;13.00;99.90;;;;;;5033409;28;20200;-45
2023/10/19 04:52:36;;;;;;;7.90;3.90;;;13.00;99.90;;;;;;5033908;28;20203;-44
2023/10/19 04:55:02;;;;;;;4.37;3.60;;;13.00;99.90;;;;;;5033944;28;20185;-44
2023/10/19 04:57:28;;;;;;;6.17;4.00;;;13.00;99.90;;;;;;5033774;28;20574;-44
2023/10/19 04:59:55;;;;;;;5.97;4.10;;;13.00;99.90;;;;;;5033828;28;20220;-43
2023/10/19 05:02:20;;;;;;;5.13;4.17;;;12.90;99.90;;;;;;5033746;28;20565;-46
2023/10/19 05:04:46;;;;;;;4.83;3.43;;;12.90;99.90;;;;;;5033546;28;20169;-44
2023/10/19 05:07:14;;;;;;;4.00;3.40;;;12.90;99.90;;;;;;5033749;28;20607;-44
2023/10/19 05:09:40;;;;;;;7.13;3.47;;;12.80;99.90;;;;;;5033678;28;20541;-44
2023/10/19 05:12:09;;;;;;;5.97;3.20;;;12.80;99.90;;;;;;5033445;28;20195;-45
2023/10/19 05:14:38;;;;;;;5.07;3.30;;;12.80;99.90;;;;;;5033751;28;20185;-43
2023/10/19 05:17:04;;;;;;;6.43;3.30;;;12.70;99.90;;;;;;5015694;28;20548;-45
2023/10/19 05:19:34;;;;;;;3.27;2.60;;;12.80;99.90;;;;;;5033540;28;20526;-44
2023/10/19 05:22:05;;;;;;;5.33;2.90;;;12.80;99.90;;;;;;5033306;28;20598;-44
2023/10/19 05:24:33;;;;;;;4.67;2.90;;;12.70;99.90;;;;;;5016745;28;20188;-44
2023/10/19 05:26:58;;;;;;;3.37;2.43;;;12.80;99.90;;;;;;5033312;28;20181;-43
2023/10/19 05:29:24;;;;;;;8.20;2.83;;;12.70;99.90;;;;;;5033865;28;20188;-42
2023/10/19 05:31:57;;;;;;;5.43;2.80;;;12.80;99.90;;;;;;5033093;28;20224;-44
2023/10/19 05:34:29;;;;;;;4.57;2.80;;;12.80;99.90;;;;;;5049557;23;20576;-50
2023/10/19 05:36:58;;;;;;;6.80;3.03;;;12.80;99.90;;;;;;5053229;28;20199;-46
2023/10/19 05:39:31;;;;;;;4.77;2.93;;;12.80;99.90;;;;;;5053011;28;20237;-48
2023/10/19 05:42:00;;;;;;;4.93;3.27;;;12.80;99.90;;;;;;5050525;28;20219;-47
2023/10/19 05:44:30;;;;;;;7.30;3.27;;;12.70;99.90;;;;;;5053549;28;20168;-46
2023/10/19 05:46:59;;;;;;;6.07;3.00;;;12.70;99.90;;;;;;5052203;28;20187;-48
2023/10/19 05:49:25;;;;;;;4.17;3.20;;;12.70;99.90;;;;;;5051987;28;20651;-46
2023/10/19 05:51:54;;;;;;;3.93;2.70;;;12.60;99.90;;;;;;5053368;28;20270;-46
2023/10/19 05:54:30;;;;;;;3.93;2.70;;;12.60;99.90;;;;;;5053356;28;20184;-47
2023/10/19 05:56:56;;;;;;;4.43;2.67;;;12.70;99.90;;;;;;5054086;28;20184;-45
2023/10/19 05:59:29;;;;;;;7.37;2.40;;;12.60;99.90;;;;;;5056796;28;20187;-46
2023/10/19 06:01:55;;;;;;;6.93;2.77;;;12.60;99.90;;;;;;5057218;28;20188;-47
2023/10/19 06:04:57;;;;;;;3.47;2.37;;;12.60;99.90;;;;;;5055524;28;20540;-47
2023/10/19 06:07:25;;;;;;;4.73;2.17;;;12.70;99.90;;;;;;5057371;28;20579;-47
2023/10/19 06:09:50;;;;;;;5.47;2.97;;;12.60;99.90;;;;;;5055569;28;20225;-47
2023/10/19 06:12:16;;;;;;;5.47;2.40;;;12.60;99.90;;;;;;5056805;28;20647;-47
2023/10/19 06:14:43;;;;;;;4.10;2.87;;;12.60;99.90;;;;;;5055450;28;20644;-47
2023/10/19 06:17:10;;;;;;;3.73;2.60;;;12.60;99.90;;;;;;5056827;28;20187;-46
2023/10/19 06:19:45;;;;;;;10.60;3.37;;;12.60;99.90;;;;;;5056749;28;20207;-48
2023/10/19 06:22:42;;;;;;;8.57;2.77;;;12.60;99.90;;;;;;5056691;28;20192;-47
2023/10/19 06:25:08;;;;;;;6.10;3.13;;;12.60;99.90;;;;;;5056338;28;20177;-46
2023/10/19 06:27:35;;;;;;;5.37;3.03;;;12.60;99.90;;;;;;5056717;28;20263;-47
2023/10/19 06:30:01;;;;;;;6.10;3.17;;;12.60;99.90;;;;;;5055063;28;20196;-48
2023/10/19 06:32:27;;;;;;;5.60;3.23;;;12.60;99.90;;;;;;5056362;28;20221;-47
2023/10/19 06:34:57;;;;;;;5.93;3.23;;;12.60;99.90;;;;;;5056207;28;20540;-46
2023/10/19 06:37:23;;;;;;;5.07;3.60;;;12.60;99.90;;;;;;5056616;28;20157;-46
2023/10/19 06:39:50;;;;;;;6.70;3.00;;;12.60;99.90;;;;;;5056398;28;20200;-45
2023/10/19 06:42:17;;;;;;;8.90;3.60;;;12.60;99.90;;;;;;5056053;28;20679;-45
2023/10/19 06:44:43;;;;;;;6.03;3.07;;;12.60;99.90;;;;;;5056148;28;20168;-46
2023/10/19 06:47:10;;;;;;;7.27;3.43;;;12.70;99.90;;;;;;5056123;28;20172;-48
2023/10/19 06:49:37;;;;;;;7.53;3.67;;;12.60;99.90;;;;;;5055977;28;20176;-47
2023/10/19 06:52:04;;;;;;;9.57;3.63;;;12.60;99.90;;;;;;5055848;28;20562;-47
2023/10/19 06:54:33;;;;;;;6.27;3.63;;;12.60;99.90;;;;;;5056643;28;20183;-48
2023/10/19 06:57:02;;;;;;;5.97;3.13;;;12.60;99.90;;;;;;5056116;28;20210;-46
2023/10/19 06:59:38;;;;;;;7.43;3.37;;;12.60;99.90;;;;;;5054524;28;20275;-46
2023/10/19 07:02:07;;;;;;;6.10;3.40;;;12.60;99.90;;;;;;5054473;28;20242;-46
2023/10/19 07:04:36;;;;;;;7.20;3.43;;;12.70;99.90;;;;;;5056251;28;20184;-50
2023/10/19 07:07:03;;;;;;;6.70;2.87;;;12.70;99.90;;;;;;5056855;28;20667;-47
2023/10/19 07:09:31;;;;;;;8.57;3.07;;;12.80;99.90;;;;;;5056206;28;20234;-46
2023/10/19 07:12:00;;;;;;;3.30;3.00;;;12.80;99.90;;;;;;5055522;28;20667;-47
2023/10/19 07:14:30;;;;;;;5.87;2.83;;;12.80;99.90;;;;;;5054133;28;20184;-47
2023/10/19 07:16:57;;;;;;;7.17;3.00;;;12.90;99.90;;;;;;5055293;28;20200;-45
2023/10/19 07:19:23;;;;;;;5.33;3.07;;;12.90;99.90;;;;;;5055716;28;20176;-47
2023/10/19 07:21:57;;;;;;;6.33;3.00;;;12.90;99.90;;;;;;5055270;28;20333;-46
2023/10/19 07:24:36;;;;;;;4.03;3.10;;;13.00;99.90;;;;;;5055684;28;20568;-46
2023/10/19 07:27:04;;;;;;;6.50;3.00;;;13.00;99.90;;;;;;5055282;28;20192;-50
2023/10/19 07:29:33;;;;;;;7.73;2.90;;;13.10;99.90;;;;;;5055312;28;20638;-46
2023/10/19 07:31:59;;;;;;;8.40;3.53;;;13.10;99.90;;;;;;5055466;28;20176;-47
2023/10/19 07:34:34;;;;;;;4.40;3.20;;;13.20;99.90;;;;;;5055510;28;20754;-47
2023/10/19 07:37:00;;;;;;;4.70;3.17;;;13.20;99.90;;;;;;5055045;28;20235;-48
2023/10/19 07:39:33;;;;;;;6.80;3.60;;;13.30;99.90;;;;;;5055458;28;20208;-48
2023/10/19 07:42:01;;;;;;;7.73;3.40;;;13.30;99.90;;;;;;5053783;28;20577;-50
2023/10/19 07:44:30;;;;;;;7.13;3.60;;;13.50;99.90;;;;;;5054922;28;20173;-49
2023/10/19 07:46:55;;;;;;;9.87;3.43;;;13.60;99.90;;;;;;5053421;28;20218;-49
2023/10/19 07:49:25;;;;;;;6.63;3.30;;;13.70;99.90;;;;;;5055116;28;20195;-51
2023/10/19 07:51:51;;;;;;;8.10;2.90;;;13.80;99.90;;;;;;5055059;28;20690;-50
2023/10/19 07:54:18;;;;;;;7.40;3.30;;;13.90;99.90;;;;;;5054168;28;20188;-51
2023/10/19 07:56:44;;;;;;;3.73;3.20;;;14.10;99.90;;;;;;5054693;28;20176;-51
2023/10/19 07:59:12;;;;;;;9.90;3.50;;;14.10;99.90;;;;;;5054697;28;20230;-51
2023/10/19 08:01:38;;;;;;;7.67;3.37;;;14.10;99.90;;;;;;5054397;28;20204;-51
2023/10/19 08:04:05;;;;;;;6.37;3.13;;;14.20;99.90;;;;;;5036280;28;20666;-51
2023/10/19 08:06:34;;;;;;;8.90;3.33;;;14.30;99.90;;;;;;5054491;28;20179;-50
2023/10/19 08:08:59;;;;;;;6.70;3.07;;;14.40;99.90;;;;;;5054403;28;20194;-51
2023/10/19 08:11:25;;;;;;;6.87;2.73;;;14.40;99.90;;;;;;5054560;28;20589;-49
2023/10/19 08:13:55;;;;;;;5.80;2.87;;;14.50;99.90;;;;;;5054649;28;20218;-49
2023/10/19 08:16:23;;;;;;;9.47;3.23;;;14.60;99.90;;;;;;5053893;28;20196;-51
2023/10/19 08:18:48;;;;;;;8.47;3.87;;;14.70;99.90;;;;;;5054316;28;20179;-50
2023/10/19 08:21:17;;;;;;;6.27;3.30;;;14.80;99.90;;;;;;5053780;28;20203;-50
2023/10/19 08:23:45;;;;;;;8.60;4.80;;;14.80;99.90;;;;;;5052774;28;20595;-50
2023/10/19 08:26:11;;;;;;;12.20;4.90;;;14.80;99.90;;;;;;5053748;28;20211;-51
2023/10/19 08:28:39;;;;;;;9.27;4.13;;;14.90;99.90;;;;;;5053997;28;20208;-51
2023/10/19 08:31:14;;;;;;;6.97;3.77;;;14.90;99.90;;;;;;5052739;28;20204;-51
2023/10/19 08:33:41;;;;;;;6.30;3.57;;;14.90;99.90;;;;;;5052962;28;20176;-50
2023/10/19 08:36:19;;;;;;;6.40;3.40;;;14.90;99.90;;;;;;5053941;28;20196;-49
2023/10/19 08:38:47;;;;;;;6.83;2.37;;;14.90;99.90;;;;;;5031776;28;20237;-49
2023/10/19 08:41:16;;;;;;;4.13;2.00;;;15.00;99.90;;;;;;5052530;28;20210;-51
2023/10/19 08:43:43;;;;;;;8.13;2.83;;;15.00;99.90;;;;;;5036069;28;20225;-51
2023/10/19 08:46:14;;;;;;;5.40;2.40;;;15.10;99.90;;;;;;5053795;28;20175;-50
2023/10/19 08:48:48;;;;;;;7.13;2.80;;;15.20;99.90;;;;;;5053185;28;20197;-49
2023/10/19 08:52:09;;;;;;;5.07;2.90;;;15.30;99.90;;;;;;5053557;28;20293;-51
2023/10/19 08:54:36;;;;;;;11.53;3.00;;;15.40;99.90;;;;;;5052377;28;20597;-50
2023/10/19 08:57:03;;;;;;;7.20;3.00;;;15.50;99.90;;;;;;5053540;28;20718;-50
2023/10/19 08:59:30;;;;;;;9.20;2.43;;;15.60;99.90;;;;;;5052234;28;20180;-50
2023/10/19 09:02:03;;;;;;;5.03;2.63;;;15.70;99.90;;;;;;5053410;28;20203;-52
2023/10/19 09:04:30;;;;;;;7.70;2.73;;;15.70;99.90;;;;;;5052188;28;20187;-49
2023/10/19 09:06:55;;;;;;;5.83;2.33;;;15.80;99.90;;;;;;5053557;28;20180;-51
2023/10/19 09:09:25;;;;;;;7.60;2.43;;;15.80;99.90;;;;;;5052221;28;20183;-50
2023/10/19 09:11:54;;;;;;;5.97;2.47;;;15.80;99.90;;;;;;5053277;28;20196;-51
2023/10/19 09:14:35;;;;;;;6.97;2.40;;;15.80;99.90;;;;;;5053625;28;20198;-51
2023/10/19 09:17:05;;;;;;;8.47;2.53;;;15.90;99.90;;;;;;5052104;28;20176;-51
2023/10/19 09:19:41;;;;;;;9.43;2.50;;;16.00;99.90;;;;;;5052004;28;20233;-49
2023/10/19 09:22:18;;;;;;;8.53;2.77;;;16.20;99.90;;;;;;5051975;28;20204;-50
2023/10/19 09:24:49;;;;;;;6.03;2.40;;;16.30;99.90;;;;;;5053376;28;20168;-50
2023/10/19 09:27:17;;;;;;;7.00;2.10;;;16.50;99.90;;;;;;5053219;28;20216;-50
2023/10/19 09:29:48;;;;;;;7.03;2.33;;;16.60;99.90;;;;;;5051996;28;20183;-50
2023/10/19 09:32:14;;;;;;;5.27;1.97;;;16.70;99.90;;;;;;5053833;28;20670;-50
2023/10/19 09:34:43;;;;;;;7.13;1.97;;;16.90;99.90;;;;;;5056197;28;20183;-51
2023/10/19 09:37:15;;;;;;;5.43;1.80;;;17.00;99.90;;;;;;5055936;28;20265;-51
2023/10/19 09:39:43;;;;;;;6.93;1.90;;;17.10;99.90;;;;;;5056074;28;20187;-51
2023/10/19 09:42:16;;;;;;;6.53;1.73;;;17.20;99.90;;;;;;5057073;28;20619;-51
2023/10/19 09:44:44;;;;;;;7.77;2.37;;;17.30;99.90;;;;;;5056472;28;20191;-51
2023/10/19 09:47:20;;;;;;;5.20;1.90;;;17.40;99.90;;;;;;5056781;28;20198;-48
2023/10/19 09:49:49;;;;;;;4.37;1.70;;;17.40;99.90;;;;;;5055726;28;20206;-50
2023/10/19 09:52:17;;;;;;;6.77;2.47;;;17.40;99.90;;;;;;5055969;28;20181;-50
2023/10/19 09:54:59;;;;;;;7.23;1.93;;;17.40;99.90;;;;;;5055742;28;20242;-51
2023/10/19 09:57:37;;;;;;;6.87;2.27;;;17.40;99.90;;;;;;5039452;28;20283;-51
2023/10/19 10:00:11;;;;;;;3.93;1.50;;;17.40;99.90;;;;;;5055673;28;20236;-50
2023/10/19 10:02:45;;;;;;;6.07;1.93;;;17.50;99.90;;;;;;5056244;28;20563;-50
2023/10/19 10:05:43;;;;;;;10.20;2.03;;;17.50;99.90;;;;;;5055638;28;20195;-50
2023/10/19 10:08:17;;;;;;;10.00;1.90;;;17.60;99.90;;;;;;5055462;28;20333;-51
2023/10/19 10:10:43;;;;;;;9.90;2.17;;;17.70;99.90;;;;;;5055375;28;20199;-50
2023/10/19 10:13:24;;;;;;;8.40;1.90;;;17.70;99.90;;;;;;5055380;28;20271;-50
2023/10/19 10:15:55;;;;;;;7.40;1.77;;;17.80;99.90;;;;;;5055482;28;20618;-50
2023/10/19 10:18:24;;;;;;;10.10;1.60;;;17.90;99.90;;;;;;5055536;28;20670;-51
2023/10/19 10:21:12;;;;;;;8.90;1.40;;;18.00;99.90;;;;;;5055113;28;20192;-52
2023/10/19 10:23:47;;;;;;;6.57;1.77;;;18.20;99.90;;;;;;5055175;28;20187;-51
2023/10/19 10:26:14;;;;;;;5.47;1.47;;;18.40;99.90;;;;;;5055206;28;20234;-50
2023/10/19 10:28:41;;;;;;;10.40;2.07;;;18.50;99.90;;;;;;5055067;28;20310;-49
2023/10/19 10:31:08;;;;;;;4.83;1.77;;;18.60;99.90;;;;;;5055014;28;20242;-51
2023/10/19 10:33:45;;;;;;;6.47;1.80;;;18.60;99.90;;;;;;5056283;28;20176;-51
2023/10/19 10:36:19;;;;;;;6.47;1.40;;;18.60;99.90;;;;;;5054824;28;20589;-50
2023/10/19 10:38:50;;;;;;;16.10;1.50;;;18.70;99.90;;;;;;5056758;28;20558;-49
2023/10/19 10:41:27;;;;;;;8.27;1.50;;;18.70;99.90;;;;;;5054678;28;20216;-50
2023/10/19 10:43:56;;;;;;;4.83;1.17;;;18.70;99.90;;;;;;5054738;28;20176;-49
2023/10/19 10:46:23;;;;;;;7.20;1.70;;;18.70;99.90;;;;;;5054799;28;20176;-51
2023/10/19 10:48:49;;;;;;;4.67;0.93;;;18.60;99.90;;;;;;5056260;28;20184;-50
2023/10/19 10:51:18;;;;;;;6.67;1.70;;;18.60;99.90;;;;;;5054579;28;20231;-50
2023/10/19 10:53:46;;;;;;;7.13;1.70;;;18.60;99.90;;;;;;5055921;28;20203;-53
2023/10/19 10:56:12;;;;;;;9.20;1.90;;;18.70;99.90;;;;;;5054596;28;20211;-50
2023/10/19 10:58:38;;;;;;;6.97;1.63;;;18.70;99.90;;;;;;5055821;28;20231;-47
2023/10/19 11:01:05;;;;;;;6.93;1.87;;;18.70;99.90;;;;;;5055715;28;20368;-47
2023/10/19 11:03:31;;;;;;;8.53;1.90;;;18.70;99.90;;;;;;5055731;28;20165;-46
2023/10/19 11:06:10;;;;;;;6.73;1.53;;;18.80;99.90;;;;;;5054608;28;20610;-44
2023/10/19 11:08:39;;;;;;;12.77;2.07;;;18.80;99.90;;;;;;5055926;28;20218;-49
2023/10/19 11:11:10;;;;;;;10.07;2.27;;;18.90;99.90;;;;;;5055572;28;20568;-50
2023/10/19 11:13:38;;;;;;;6.90;2.00;;;18.90;99.90;;;;;;5054305;28;20249;-51
2023/10/19 11:16:05;;;;;;;8.63;2.20;;;19.00;99.90;;;;;;5055471;28;20176;-49
2023/10/19 11:18:45;;;;;;;9.73;2.00;;;19.10;99.90;;;;;;5054305;28;20204;-50
2023/10/19 11:21:14;;;;;;;6.53;1.50;;;19.10;99.90;;;;;;5054357;28;20215;-51
2023/10/19 11:23:54;;;;;;;6.93;1.60;;;19.20;99.90;;;;;;5054155;28;20263;-45
2023/10/19 11:26:27;;;;;;;5.83;1.50;;;19.30;99.90;;;;;;5055939;28;20157;-46
2023/10/19 11:29:18;;;;;;;10.60;1.73;;;19.30;99.90;;;;;;5055109;28;20176;-46
2023/10/19 11:31:59;;;;;;;9.63;1.93;;;19.30;99.90;;;;;;5055093;28;20683;-49
2023/10/19 11:37:06;;;;;;;6.83;1.60;;;19.30;99.90;;;;;;4787334;26;20289;-49
2023/10/19 11:39:32;;;;;;;5.70;1.67;;;19.30;99.90;;;;;;5035038;28;20197;-48
2023/10/19 11:41:57;;;;;;;5.90;1.83;;;19.30;99.90;;;;;;5034139;28;20241;-49
2023/10/19 11:44:23;;;;;;;7.17;1.67;;;19.30;99.90;;;;;;5035089;28;20215;-50
2023/10/19 11:46:49;;;;;;;5.37;1.80;;;19.30;99.90;;;;;;5017296;28;20180;-49
2023/10/19 11:49:15;;;;;;;6.53;1.77;;;19.30;99.90;;;;;;5035073;28;20215;-49
2023/10/19 11:52:19;;;;;;;5.90;2.00;;;19.40;99.90;;;;;;5035170;28;20197;-49
2023/10/19 11:54:44;;;;;;;5.00;1.77;;;19.40;99.90;;;;;;5034052;28;20188;-50
2023/10/19 11:57:10;;;;;;;5.37;1.30;;;19.40;99.90;;;;;;5034825;28;20188;-50
2023/10/19 11:59:35;;;;;;;8.87;1.77;;;19.40;99.90;;;;;;5035224;28;20216;-51
2023/10/19 12:02:04;;;;;;;5.00;1.60;;;19.40;99.90;;;;;;5034939;28;20205;-50
2023/10/19 12:04:36;;;;;;;4.27;1.47;;;19.40;99.90;;;;;;5033813;28;20188;-50
2023/10/19 12:07:03;;;;;;;7.90;1.60;;;19.40;99.90;;;;;;5033332;28;20181;-50
2023/10/19 12:09:29;;;;;;;5.00;1.50;;;19.30;99.90;;;;;;5033877;28;20588;-48
2023/10/19 12:11:58;;;;;;;6.50;1.60;;;19.30;99.90;;;;;;5034751;28;20188;-50
2023/10/19 12:17:46;;;;;;;6.47;1.87;;;19.20;99.90;;;;;;5034539;28;20164;-50
2023/10/19 12:20:15;;;;;;;6.87;1.33;;;19.10;99.90;;;;;;5034606;28;20581;-48
2023/10/19 12:22:42;;;;;;;10.93;1.50;;;19.10;99.90;;;;;;5033000;28;20216;-49
2023/10/19 12:25:08;;;;;;;6.47;1.47;;;19.00;99.90;;;;;;5034318;28;20192;-50
2023/10/19 12:27:34;;;;;;;7.40;1.77;;;19.00;99.90;;;;;;5033098;28;20220;-49
2023/10/19 12:30:01;;;;;;;9.33;2.27;;;19.00;99.90;;;;;;5032858;28;20228;-50
2023/10/19 12:32:27;;;;;;;7.97;1.90;;;18.90;99.90;;;;;;5032998;28;20664;-50
2023/10/19 12:34:57;;;;;;;8.30;1.50;;;18.80;99.90;;;;;;5033013;28;20280;-49
2023/10/19 12:37:24;;;;;;;8.67;2.20;;;18.80;99.90;;;;;;5034207;28;20335;-49
2023/10/19 12:39:51;;;;;;;7.07;1.77;;;18.70;99.90;;;;;;5034111;28;20603;-51
2023/10/19 12:42:17;;;;;;;13.17;1.70;;;18.70;99.90;;;;;;5034263;28;20232;-51
2023/10/19 12:44:43;;;;;;;5.80;2.00;;;18.70;99.90;;;;;;5034007;28;20223;-51
2023/10/19 12:47:17;;;;;;;7.13;1.40;;;18.70;99.90;;;;;;5033112;28;20209;-49
2023/10/19 12:49:45;;;;;;;7.73;2.20;;;18.60;99.90;;;;;;5032527;28;20566;-49
2023/10/19 12:52:12;;;;;;;7.43;1.70;;;18.60;99.90;;;;;;5032721;28;20200;-50
2023/10/19 12:54:39;;;;;;;6.57;2.00;;;18.60;99.90;;;;;;5033925;28;20215;-49
2023/10/19 12:57:09;;;;;;;8.70;1.97;;;18.50;99.90;;;;;;5033712;28;20215;-49
2023/10/19 12:59:39;;;;;;;6.70;1.60;;;18.50;99.90;;;;;;5033614;28;20188;-50
2023/10/19 13:02:08;;;;;;;9.23;1.70;;;18.50;99.90;;;;;;5032440;28;20228;-50
2023/10/19 13:04:36;;;;;;;8.67;1.70;;;18.40;99.90;;;;;;5034225;28;20594;-49
2023/10/19 13:07:02;;;;;;;6.87;1.77;;;18.50;99.90;;;;;;5033555;28;20269;-51
2023/10/19 13:09:31;;;;;;;12.90;2.07;;;18.40;99.90;;;;;;5015965;28;20234;-51
2023/10/19 13:12:00;;;;;;;11.80;1.90;;;18.30;99.90;;;;;;5034356;28;20637;-50
2023/10/19 13:14:27;;;;;;;8.40;1.77;;;18.20;99.90;;;;;;5034991;28;20181;-46
2023/10/19 13:16:54;;;;;;;5.73;2.00;;;18.20;99.90;;;;;;5033555;28;20200;-46
2023/10/19 13:19:25;;;;;;;8.37;2.00;;;18.20;99.90;;;;;;5033452;28;20668;-46
2023/10/19 13:21:51;;;;;;;10.37;1.90;;;18.10;99.90;;;;;;5031991;28;20216;-47